createdAt,value
2022-12-04T00:02:22.882Z,20.02
2022-12-04T00:04:49.484Z,19.05
2022-12-04T00:07:16.034Z,17.63
2022-12-04T00:09:42.450Z,19.85
2022-12-04T00:12:08.856Z,19.38
2022-12-04T00:14:49.090Z,18.75
2022-12-04T00:17:21.832Z,17.83
2022-12-04T00:19:48.138Z,18.80
2022-12-04T00:22:14.958Z,20.17
2022-12-04T00:24:41.280Z,19.30
2022-12-04T00:27:07.595Z,19.45
2022-12-04T00:29:33.902Z,19.10
2022-12-04T00:32:00.270Z,19.38
2022-12-04T00:34:28.275Z,19.73
2022-12-04T00:36:54.585Z,20.02
2022-12-04T00:39:21.069Z,17.70
2022-12-04T00:41:47.357Z,19.75
2022-12-04T00:44:13.783Z,19.38
2022-12-04T00:46:40.116Z,20.25
2022-12-04T00:49:06.488Z,20.58
2022-12-04T00:51:32.811Z,19.20
2022-12-04T00:53:59.101Z,19.58
2022-12-04T00:56:26.377Z,20.40
2022-12-04T00:58:53.546Z,20.77
2022-12-04T01:01:20.948Z,19.70
2022-12-04T01:03:47.672Z,20.77
2022-12-04T01:06:24.148Z,20.30
2022-12-04T01:08:51.363Z,20.20
2022-12-04T01:11:18.151Z,20.50
2022-12-04T01:13:44.827Z,20.23
2022-12-04T01:16:18.609Z,20.98
2022-12-04T01:18:45.129Z,21.65
2022-12-04T01:21:11.908Z,20.67
2022-12-04T01:23:38.253Z,20.60
2022-12-04T01:26:04.649Z,21.05
2022-12-04T01:28:31.055Z,21.15
2022-12-04T01:31:01.800Z,21.25
2022-12-04T01:33:28.541Z,20.17
2022-12-04T01:35:56.198Z,20.00
2022-12-04T01:38:22.923Z,20.08
2022-12-04T01:40:49.446Z,20.52
2022-12-04T01:43:16.440Z,19.90
2022-12-04T01:45:43.972Z,21.20
2022-12-04T01:48:32.486Z,20.38
2022-12-04T01:51:07.469Z,20.17
2022-12-04T01:53:35.013Z,21.17
2022-12-04T01:56:02.465Z,20.88
2022-12-04T01:58:31.731Z,20.77
2022-12-04T02:01:03.705Z,20.70
2022-12-04T02:03:33.381Z,20.90
2022-12-04T02:05:59.853Z,20.30
2022-12-04T02:08:26.970Z,21.35
2022-12-04T02:11:10.760Z,20.55
2022-12-04T02:13:57.420Z,19.98
2022-12-04T02:16:26.952Z,21.30
2022-12-04T02:19:14.413Z,20.00
2022-12-04T02:21:43.392Z,20.73
2022-12-04T02:24:18.736Z,19.70
2022-12-04T02:26:45.140Z,21.35
2022-12-04T02:29:17.535Z,19.25
2022-12-04T02:31:59.405Z,20.13
2022-12-04T02:34:28.231Z,20.85
2022-12-04T02:37:06.267Z,20.88
2022-12-04T02:39:44.438Z,20.98
2022-12-04T02:42:13.441Z,20.60
2022-12-04T02:44:43.954Z,22.77
2022-12-04T02:47:12.747Z,21.70
2022-12-04T02:49:43.181Z,19.88
2022-12-04T02:52:10.980Z,20.35
2022-12-04T02:54:41.324Z,21.02
2022-12-04T02:57:23.219Z,20.55
2022-12-04T02:59:50.591Z,22.20
2022-12-04T03:02:25.422Z,20.75
2022-12-04T03:04:53.427Z,19.85
2022-12-04T03:07:24.941Z,20.50
2022-12-04T03:09:54.942Z,21.02
2022-12-04T03:12:27.372Z,21.88
2022-12-04T03:15:12.228Z,20.83
2022-12-04T03:17:45.854Z,19.60
2022-12-04T03:20:14.333Z,20.58
2022-12-04T03:22:42.341Z,21.48
2022-12-04T03:25:08.983Z,20.88
2022-12-04T03:27:40.844Z,20.98
2022-12-04T03:30:11.490Z,20.48
2022-12-04T03:32:43.853Z,22.02
2022-12-04T03:35:16.619Z,20.33
2022-12-04T03:37:43.024Z,21.42
2022-12-04T03:40:15.384Z,22.10
2022-12-04T03:43:07.948Z,20.30
2022-12-04T03:45:41.879Z,21.60
2022-12-04T03:48:12.575Z,20.60
2022-12-04T03:50:42.666Z,21.08
2022-12-04T03:53:25.671Z,21.13
2022-12-04T03:55:54.496Z,21.02
2022-12-04T03:58:23.731Z,20.67
2022-12-04T04:00:53.938Z,21.23
2022-12-04T04:03:22.561Z,19.90
2022-12-04T04:05:53.015Z,19.85
2022-12-04T04:08:29.448Z,21.98
2022-12-04T04:10:59.319Z,21.33
2022-12-04T04:13:46.978Z,20.58
2022-12-04T04:16:35.067Z,20.10
2022-12-04T04:19:20.898Z,20.42
2022-12-04T04:22:07.354Z,21.90
2022-12-04T04:24:40.558Z,21.35
2022-12-04T04:27:06.938Z,20.65
2022-12-04T04:29:33.447Z,21.52
2022-12-04T04:32:03.811Z,21.02
2022-12-04T04:34:39.133Z,19.50
2022-12-04T04:37:16.676Z,21.38
2022-12-04T04:39:42.931Z,19.88
2022-12-04T04:42:13.406Z,20.73
2022-12-04T04:44:48.736Z,19.35
2022-12-04T04:47:28.811Z,18.15
2022-12-04T04:49:56.278Z,19.63
2022-12-04T04:52:23.637Z,21.15
2022-12-04T04:54:50.099Z,21.33
2022-12-04T04:57:30.196Z,21.33
2022-12-04T04:59:56.887Z,19.60
2022-12-04T05:02:25.663Z,20.52
2022-12-04T05:04:52.079Z,21.45
2022-12-04T05:07:18.416Z,21.45
2022-12-04T05:09:44.723Z,22.70
2022-12-04T05:12:11.059Z,21.98
2022-12-04T05:14:37.392Z,20.45
2022-12-04T05:17:12.378Z,21.17
2022-12-04T05:19:54.701Z,22.08
2022-12-04T05:22:23.248Z,21.92
2022-12-04T05:24:49.503Z,22.45
2022-12-04T05:27:15.836Z,21.63
2022-12-04T05:29:42.202Z,20.50
2022-12-04T05:32:08.537Z,22.77
2022-12-04T05:34:34.908Z,21.35
2022-12-04T05:37:01.191Z,22.05
2022-12-04T05:39:27.594Z,20.95
2022-12-04T05:41:53.875Z,21.20
2022-12-04T05:44:20.380Z,20.33
2022-12-04T05:46:46.853Z,20.90
2022-12-04T05:49:13.243Z,20.67
2022-12-04T05:51:39.581Z,21.17
2022-12-04T05:54:05.944Z,22.83
2022-12-04T05:56:32.240Z,21.00
2022-12-04T05:58:58.599Z,21.70
2022-12-04T06:01:24.908Z,21.95
2022-12-04T06:03:51.212Z,21.13
2022-12-04T06:06:21.869Z,20.20
2022-12-04T06:08:49.393Z,21.30
2022-12-04T06:11:20.077Z,22.38
2022-12-04T06:13:46.391Z,19.75
2022-12-04T06:16:16.515Z,20.02
2022-12-04T06:18:42.980Z,20.55
2022-12-04T06:21:09.814Z,20.13
2022-12-04T06:23:36.175Z,20.38
2022-12-04T06:26:07.251Z,20.40
2022-12-04T06:28:34.376Z,21.92
2022-12-04T06:31:01.339Z,19.83
2022-12-04T06:33:28.011Z,21.35
2022-12-04T06:35:58.162Z,20.35
2022-12-04T06:38:24.522Z,19.13
2022-12-04T06:40:50.850Z,21.33
2022-12-04T06:43:17.140Z,21.48
2022-12-04T06:45:43.505Z,19.73
2022-12-04T06:48:09.956Z,20.92
2022-12-04T06:50:36.379Z,19.60
2022-12-04T06:53:08.126Z,21.75
2022-12-04T06:55:34.829Z,20.75
2022-12-04T06:58:01.161Z,19.90
2022-12-04T07:00:27.546Z,20.48
2022-12-04T07:02:53.873Z,19.73
2022-12-04T07:05:20.382Z,20.85
2022-12-04T07:07:46.801Z,20.85
2022-12-04T07:10:13.219Z,19.98
2022-12-04T07:12:39.649Z,20.60
2022-12-04T07:15:06.221Z,19.02
2022-12-04T07:17:32.768Z,19.98
2022-12-04T07:19:59.213Z,19.75
2022-12-04T07:22:26.324Z,20.42
2022-12-04T07:24:52.744Z,20.65
2022-12-04T07:27:19.089Z,19.65
2022-12-04T07:29:45.537Z,19.92
2022-12-04T07:32:12.131Z,20.35
2022-12-04T07:34:38.455Z,20.13
2022-12-04T07:37:04.799Z,20.90
2022-12-04T07:39:31.309Z,20.08
2022-12-04T07:41:57.618Z,19.92
2022-12-04T07:44:24.083Z,20.95
2022-12-04T07:46:50.447Z,19.55
2022-12-04T07:49:16.852Z,20.02
2022-12-04T07:51:43.237Z,19.50
2022-12-04T07:54:09.677Z,21.00
2022-12-04T07:56:36.105Z,18.40
2022-12-04T07:59:02.533Z,20.35
2022-12-04T08:01:29.427Z,21.13
2022-12-04T08:03:57.823Z,21.60
2022-12-04T08:06:25.365Z,21.23
2022-12-04T08:08:52.252Z,18.05
2022-12-04T08:11:19.580Z,20.98
2022-12-04T08:13:46.000Z,20.45
2022-12-04T08:16:12.865Z,20.17
2022-12-04T08:18:40.251Z,19.65
2022-12-04T08:21:10.828Z,19.85
2022-12-04T08:23:37.557Z,21.20
2022-12-04T08:26:04.532Z,19.42
2022-12-04T08:28:30.866Z,19.55
2022-12-04T08:31:02.423Z,20.17
2022-12-04T08:33:28.722Z,19.95
2022-12-04T08:35:55.058Z,20.20
2022-12-04T08:38:21.417Z,20.48
2022-12-04T08:40:47.734Z,19.13
2022-12-04T08:43:14.147Z,21.77
2022-12-04T08:45:40.609Z,20.83
2022-12-04T08:48:06.976Z,20.10
2022-12-04T08:50:33.369Z,19.23
2022-12-04T08:52:59.724Z,19.83
2022-12-04T08:55:25.972Z,19.90
2022-12-04T08:57:52.772Z,19.55
2022-12-04T09:00:19.412Z,19.88
2022-12-04T09:02:48.284Z,20.05
2022-12-04T09:05:14.813Z,20.02
2022-12-04T09:07:41.142Z,20.60
2022-12-04T09:10:07.715Z,19.30
2022-12-04T09:12:34.005Z,17.83
2022-12-04T09:15:00.317Z,19.08
2022-12-04T09:17:26.644Z,18.90
2022-12-04T09:19:55.560Z,18.02
2022-12-04T09:22:25.617Z,18.15
2022-12-04T09:24:51.878Z,18.83
2022-12-04T09:27:18.148Z,19.67
2022-12-04T09:29:44.423Z,19.42
2022-12-04T09:32:10.665Z,18.48
2022-12-04T09:34:37.104Z,18.45
2022-12-04T09:37:03.428Z,18.73
2022-12-04T09:39:29.728Z,19.00
2022-12-04T09:42:11.532Z,19.33
2022-12-04T09:44:43.937Z,19.23
2022-12-04T09:47:19.103Z,17.92
2022-12-04T09:50:24.040Z,20.00
2022-12-04T09:52:59.714Z,18.08
2022-12-04T09:55:32.246Z,18.33
2022-12-04T09:58:02.473Z,17.13
2022-12-04T10:00:30.500Z,17.85
2022-12-04T10:03:10.109Z,18.90
2022-12-04T10:05:50.879Z,16.42
2022-12-04T10:08:35.453Z,17.20
2022-12-04T10:11:21.897Z,15.93
2022-12-04T10:13:48.256Z,17.17
2022-12-04T10:16:20.970Z,17.50
2022-12-04T10:18:47.277Z,17.58
2022-12-04T10:21:29.060Z,14.38
2022-12-04T10:24:01.810Z,16.83
2022-12-04T10:26:30.848Z,15.82
2022-12-04T10:29:02.540Z,15.50
2022-12-04T10:31:30.080Z,15.18
2022-12-04T10:34:01.224Z,14.10
2022-12-04T10:36:32.524Z,14.38
2022-12-04T10:39:19.619Z,14.45
2022-12-04T10:41:45.929Z,14.13
2022-12-04T10:44:14.696Z,12.73
2022-12-04T10:46:45.723Z,15.82
2022-12-04T10:49:34.472Z,13.68
2022-12-04T10:52:00.886Z,12.77
2022-12-04T10:54:27.183Z,13.18
2022-12-04T10:56:57.878Z,13.07
2022-12-04T10:59:24.691Z,13.02
2022-12-04T11:01:52.474Z,12.90
2022-12-04T11:04:29.437Z,13.70
2022-12-04T11:07:03.221Z,12.02
2022-12-04T11:09:30.432Z,12.77
2022-12-04T11:12:05.163Z,12.70
2022-12-04T11:14:31.771Z,11.95
2022-12-04T11:17:03.464Z,12.30
2022-12-04T11:19:31.159Z,12.38
2022-12-04T11:22:00.174Z,12.50
2022-12-04T11:24:29.340Z,11.32
2022-12-04T11:26:56.654Z,12.70
2022-12-04T11:29:27.429Z,11.50
2022-12-04T11:31:55.331Z,12.27
2022-12-04T11:34:23.703Z,11.00
2022-12-04T11:36:54.400Z,12.50
2022-12-04T11:39:27.070Z,10.80
2022-12-04T11:42:19.629Z,12.02
2022-12-04T11:44:52.941Z,10.30
2022-12-04T11:47:20.263Z,11.35
2022-12-04T11:49:57.883Z,11.18
2022-12-04T11:52:30.475Z,11.98
2022-12-04T11:55:02.152Z,12.13
2022-12-04T11:57:34.493Z,11.43
2022-12-04T12:00:24.293Z,11.93
2022-12-04T12:03:09.520Z,12.32
2022-12-04T12:05:54.609Z,10.20
2022-12-04T12:08:36.216Z,10.85
2022-12-04T12:11:10.954Z,10.55
2022-12-04T12:13:37.535Z,11.27
2022-12-04T12:16:13.094Z,9.82
2022-12-04T12:18:45.582Z,10.30
2022-12-04T12:21:11.935Z,10.18
2022-12-04T12:23:46.231Z,9.90
2022-12-04T12:26:13.894Z,10.07
2022-12-04T12:28:58.906Z,10.50
2022-12-04T12:31:43.242Z,9.90
2022-12-04T12:34:31.270Z,11.52
2022-12-04T12:37:03.536Z,10.13
2022-12-04T12:39:52.217Z,10.50
2022-12-04T12:42:25.039Z,11.45
2022-12-04T12:44:59.791Z,9.85
2022-12-04T12:47:30.852Z,9.23
2022-12-04T12:52:43.254Z,10.85
2022-12-04T12:55:39.723Z,10.68
2022-12-04T12:58:10.710Z,10.15
2022-12-04T13:03:05.027Z,10.23
2022-12-04T13:05:34.981Z,9.90
2022-12-04T13:08:04.543Z,10.27
2022-12-04T13:10:43.484Z,10.55
2022-12-04T13:13:27.074Z,10.38
2022-12-04T13:15:59.047Z,9.27
2022-12-04T13:18:32.596Z,9.63
2022-12-04T13:21:01.249Z,10.10
2022-12-04T13:23:48.172Z,10.13
2022-12-04T13:26:24.011Z,9.82
2022-12-04T13:29:03.075Z,10.00
2022-12-04T13:31:59.161Z,9.85
2022-12-04T13:34:47.791Z,9.98
2022-12-04T13:37:37.440Z,9.52
2022-12-04T13:43:38.822Z,9.80
2022-12-04T13:46:07.298Z,9.73
2022-12-04T13:48:44.342Z,9.95
2022-12-04T13:51:23.676Z,10.38
2022-12-04T13:54:00.459Z,9.80
2022-12-04T13:56:28.171Z,10.40
2022-12-04T13:59:02.154Z,11.43
2022-12-04T14:01:31.051Z,11.95
2022-12-04T14:03:59.478Z,11.73
2022-12-04T14:06:27.861Z,11.20
2022-12-04T14:08:58.588Z,10.65
2022-12-04T14:11:25.633Z,10.57
2022-12-04T14:13:56.481Z,11.60
2022-12-04T14:18:51.700Z,11.10
2022-12-04T14:21:18.264Z,10.85
2022-12-04T14:23:44.787Z,11.70
2022-12-04T14:26:21.797Z,11.35
2022-12-04T14:28:48.890Z,12.18
2022-12-04T14:31:23.615Z,12.35
2022-12-04T14:34:01.478Z,11.70
2022-12-04T14:36:34.931Z,12.30
2022-12-04T14:39:08.079Z,12.20
2022-12-04T14:41:34.571Z,11.43
2022-12-04T14:44:01.055Z,12.30
2022-12-04T14:46:30.548Z,13.20
2022-12-04T14:49:15.584Z,13.07
2022-12-04T14:51:47.236Z,13.02
2022-12-04T14:54:25.037Z,13.05
2022-12-04T14:56:59.944Z,14.00
2022-12-04T14:59:33.780Z,14.05
2022-12-04T15:02:00.270Z,14.02
2022-12-04T15:04:29.126Z,13.40
2022-12-04T15:06:59.927Z,15.23
2022-12-04T15:09:45.836Z,13.48
2022-12-04T15:12:34.618Z,14.77
2022-12-04T15:15:19.576Z,14.23
2022-12-04T15:18:15.575Z,14.38
2022-12-04T15:20:41.815Z,15.60
2022-12-04T15:23:12.935Z,15.30
2022-12-04T15:25:56.317Z,15.70
2022-12-04T15:28:28.495Z,14.38
2022-12-04T15:30:56.612Z,15.73
2022-12-04T15:33:25.426Z,15.57
2022-12-04T15:35:54.269Z,15.57
2022-12-04T15:38:20.820Z,16.30
2022-12-04T15:40:53.984Z,16.70
2022-12-04T15:43:40.205Z,16.27
2022-12-04T15:46:13.613Z,15.98
2022-12-04T15:48:43.817Z,16.08
2022-12-04T15:51:14.317Z,16.60
2022-12-04T15:53:43.911Z,16.67
2022-12-04T15:56:16.519Z,15.70
2022-12-04T15:58:51.929Z,16.02
2022-12-04T16:01:18.334Z,15.65
2022-12-04T16:03:44.700Z,16.23
2022-12-04T16:06:23.204Z,16.42
2022-12-04T16:08:54.089Z,17.55
2022-12-04T16:13:48.014Z,16.98
2022-12-04T16:16:16.237Z,17.30
2022-12-04T16:18:44.548Z,17.48
2022-12-04T16:21:14.438Z,17.70
2022-12-04T16:23:40.701Z,18.23
2022-12-04T16:26:11.778Z,17.13
2022-12-04T16:28:38.064Z,17.23
2022-12-04T16:31:07.755Z,17.23
2022-12-04T16:33:34.038Z,16.90
2022-12-04T16:36:00.305Z,16.70
2022-12-04T16:38:26.708Z,16.50
2022-12-04T16:40:53.166Z,17.23
2022-12-04T16:43:19.500Z,15.70
2022-12-04T16:45:55.027Z,18.25
2022-12-04T16:48:21.417Z,16.58
2022-12-04T16:50:47.776Z,16.35
2022-12-04T16:53:18.261Z,16.00
2022-12-04T16:55:48.691Z,17.77
2022-12-04T16:58:15.277Z,16.20
2022-12-04T17:00:43.612Z,17.55
2022-12-04T17:03:17.645Z,16.67
2022-12-04T17:05:44.016Z,15.93
2022-12-04T17:08:10.384Z,16.65
2022-12-04T17:10:36.699Z,17.75
2022-12-04T17:13:03.090Z,15.77
2022-12-04T17:15:29.384Z,17.00
2022-12-04T17:17:55.663Z,18.90
2022-12-04T17:20:21.983Z,18.20
2022-12-04T17:22:49.050Z,17.10
2022-12-04T17:25:15.934Z,16.85
2022-12-04T17:27:42.614Z,17.05
2022-12-04T17:30:09.763Z,16.55
2022-12-04T17:32:36.122Z,16.85
2022-12-04T17:35:03.347Z,16.92
2022-12-04T17:37:30.950Z,16.33
2022-12-04T17:39:57.252Z,17.17
2022-12-04T17:42:23.628Z,16.83
2022-12-04T17:44:49.982Z,18.13
2022-12-04T17:47:16.482Z,16.98
2022-12-04T17:49:43.081Z,16.65
2022-12-04T17:52:09.364Z,17.90
2022-12-04T17:54:35.864Z,16.77
2022-12-04T17:57:02.254Z,17.67
2022-12-04T17:59:28.633Z,17.77
2022-12-04T18:01:55.038Z,17.83
2022-12-04T18:04:21.425Z,17.38
2022-12-04T18:06:47.886Z,17.00
2022-12-04T18:09:15.659Z,17.10
2022-12-04T18:11:43.204Z,16.10
2022-12-04T18:14:12.514Z,15.20
2022-12-04T18:16:45.148Z,15.63
2022-12-04T18:19:12.123Z,14.85
2022-12-04T18:21:38.842Z,15.13
2022-12-04T18:24:05.549Z,13.68
2022-12-04T18:26:36.667Z,15.13
2022-12-04T18:29:03.647Z,14.85
2022-12-04T18:31:29.977Z,15.93
2022-12-04T18:33:56.395Z,14.82
2022-12-04T18:36:26.399Z,15.15
2022-12-04T18:38:53.936Z,15.67
2022-12-04T18:41:20.231Z,15.07
2022-12-04T18:43:46.606Z,15.05
2022-12-04T18:46:14.460Z,14.60
2022-12-04T18:48:41.052Z,15.27
2022-12-04T18:51:13.733Z,14.68
2022-12-04T18:53:40.415Z,14.90
2022-12-04T18:56:07.300Z,15.50
2022-12-04T18:58:33.831Z,16.60
2022-12-04T19:01:10.541Z,18.05
2022-12-04T19:03:37.166Z,17.38
2022-12-04T19:06:03.628Z,16.83
2022-12-04T19:08:33.725Z,17.10
2022-12-04T19:11:08.120Z,17.58
2022-12-04T19:13:38.347Z,17.92
2022-12-04T19:16:04.831Z,17.75
2022-12-04T19:18:31.416Z,18.58
2022-12-04T19:20:57.888Z,18.27
2022-12-04T19:23:24.304Z,18.02
2022-12-04T19:25:57.371Z,20.33
2022-12-04T19:28:24.158Z,19.85
2022-12-04T19:30:50.521Z,19.00
2022-12-04T19:33:17.130Z,20.52
2022-12-04T19:35:44.706Z,19.02
2022-12-04T19:38:10.990Z,20.70
2022-12-04T19:40:37.399Z,19.50
2022-12-04T19:43:03.695Z,19.30
2022-12-04T19:45:30.001Z,19.30
2022-12-04T19:47:56.497Z,21.02
2022-12-04T19:50:22.848Z,20.95
2022-12-04T19:52:49.686Z,19.40
2022-12-04T19:55:16.065Z,20.45
2022-12-04T19:57:42.394Z,21.02
2022-12-04T20:00:09.014Z,20.83
2022-12-04T20:02:35.596Z,19.25
2022-12-04T20:05:02.019Z,20.73
2022-12-04T20:07:28.477Z,20.92
2022-12-04T20:09:54.836Z,20.90
2022-12-04T20:12:21.199Z,20.10
2022-12-04T20:14:47.575Z,20.15
2022-12-04T20:17:13.912Z,19.85
2022-12-04T20:19:40.597Z,20.67
2022-12-04T20:22:06.948Z,20.02
2022-12-04T20:24:33.336Z,21.73
2022-12-04T20:26:59.729Z,20.40
2022-12-04T20:29:26.069Z,21.98
2022-12-04T20:31:53.491Z,19.73
2022-12-04T20:34:19.862Z,20.92
2022-12-04T20:36:47.120Z,20.83
2022-12-04T20:39:14.139Z,20.52
2022-12-04T20:41:40.953Z,19.80
2022-12-04T20:44:08.387Z,21.73
2022-12-04T20:46:36.222Z,22.70
2022-12-04T20:49:04.247Z,20.02
2022-12-04T20:51:32.742Z,20.45
2022-12-04T20:53:59.869Z,21.83
2022-12-04T20:56:30.479Z,19.30
2022-12-04T20:58:58.166Z,21.33
2022-12-04T21:01:24.941Z,20.40
2022-12-04T21:03:51.697Z,21.30
2022-12-04T21:06:31.046Z,20.38
2022-12-04T21:09:02.086Z,20.80
2022-12-04T21:11:36.006Z,21.38
2022-12-04T21:14:21.432Z,19.50
2022-12-04T21:16:47.867Z,19.60
2022-12-04T21:19:14.992Z,20.17
2022-12-04T21:21:41.293Z,20.05
2022-12-04T21:24:08.569Z,20.20
2022-12-04T21:26:34.990Z,21.60
2022-12-04T21:29:01.903Z,20.67
2022-12-04T21:31:28.815Z,20.35
2022-12-04T21:33:56.125Z,21.05
2022-12-04T21:36:22.399Z,22.05
2022-12-04T21:38:48.985Z,20.98
2022-12-04T21:41:35.312Z,21.15
2022-12-04T21:44:08.698Z,20.63
2022-12-04T21:46:35.282Z,20.88
2022-12-04T21:49:01.626Z,20.88
2022-12-04T21:51:55.869Z,18.48
2022-12-04T21:54:14.293Z,20.67
2022-12-04T21:56:40.596Z,20.08
2022-12-04T21:59:07.320Z,21.30
2022-12-04T22:01:33.752Z,20.45
2022-12-04T22:04:00.298Z,20.67
2022-12-04T22:06:28.075Z,21.90
2022-12-04T22:08:55.257Z,20.08
2022-12-04T22:11:22.057Z,21.20
2022-12-04T22:13:54.457Z,21.38
2022-12-04T22:16:25.596Z,21.25
2022-12-04T22:18:57.177Z,20.83
2022-12-04T22:21:23.971Z,21.70
2022-12-04T22:23:54.892Z,23.48
2022-12-04T22:28:47.440Z,20.90
2022-12-04T22:31:14.994Z,20.33
2022-12-04T22:33:42.103Z,21.33
2022-12-04T22:36:12.794Z,22.25
2022-12-04T22:38:52.631Z,21.27
2022-12-04T22:41:25.862Z,21.27
2022-12-04T22:43:52.214Z,20.95
2022-12-04T22:46:18.604Z,20.80
2022-12-04T22:48:44.926Z,21.85
2022-12-04T22:51:12.373Z,20.48
2022-12-04T22:53:49.039Z,20.25
2022-12-04T22:56:22.796Z,21.45
2022-12-04T22:58:49.244Z,22.65
2022-12-04T23:01:23.146Z,21.20
2022-12-04T23:03:49.662Z,21.00
2022-12-04T23:06:17.556Z,21.88
2022-12-04T23:08:44.513Z,21.23
2022-12-04T23:11:14.909Z,22.35
2022-12-04T23:13:41.667Z,21.77
2022-12-04T23:16:10.091Z,21.38
2022-12-04T23:18:37.587Z,23.55
2022-12-04T23:21:05.132Z,20.77
2022-12-04T23:23:32.485Z,20.20
2022-12-04T23:26:01.186Z,20.50
2022-12-04T23:28:27.508Z,21.13
2022-12-04T23:30:53.903Z,20.67
2022-12-04T23:33:20.332Z,19.02
2022-12-04T23:35:50.511Z,20.90
2022-12-04T23:38:16.834Z,21.95
2022-12-04T23:40:43.159Z,20.02
2022-12-04T23:43:09.468Z,21.23
2022-12-04T23:45:37.603Z,20.45
2022-12-04T23:48:04.096Z,19.95
2022-12-04T23:50:30.652Z,20.15
2022-12-04T23:52:56.967Z,18.90
2022-12-04T23:55:23.602Z,20.50
2022-12-04T23:57:50.555Z,20.38
